Time;durP1;ratioP1;P1;durP2;ratioP2;P2;SDS_P1;SDS_P2;PMS_P1;PMS_P2;Temp;Humidity;BMP_temperature;BMP_pressure;BME280_temperature;BME280_humidity;BME280_pressure;Samples;Min_cycle;Max_cycle;Signal;HPM_P1;HPM_P2
2022/04/29 00:00:18;;;;;;;4.40;3.42;;;;;;;8.37;76.30;103225.84;5048679;28;20336;-78
2022/04/29 00:02:45;;;;;;;5.00;3.35;;;;;;;8.45;76.08;103229.41;5078101;28;20028;-78
2022/04/29 00:05:11;;;;;;;5.28;4.05;;;;;;;8.43;75.93;103225.91;5077736;28;20212;-78
2022/04/29 00:07:38;;;;;;;6.38;3.72;;;;;;;8.39;76.22;103217.16;5077629;28;20040;-78
2022/04/29 00:10:08;;;;;;;6.93;3.80;;;;;;;8.31;76.22;103221.44;5059615;28;20040;-78
2022/04/29 00:12:34;;;;;;;3.10;2.90;;;;;;;8.36;75.77;103216.25;5059581;28;20040;-78
2022/04/29 00:14:59;;;;;;;8.77;3.70;;;;;;;8.36;75.91;103214.50;5076545;28;20032;-78
2022/04/29 00:17:25;;;;;;;4.10;3.50;;;;;;;8.36;75.91;103214.50;5036716;28;20040;-78
2022/04/29 00:19:50;;;;;;;5.10;3.40;;;;;;;8.34;75.88;103207.53;5076797;28;20044;-78
2022/04/29 00:22:16;;;;;;;6.53;3.38;;;;;;;8.30;75.76;103205.78;5077483;28;20095;-79
2022/04/29 00:24:41;;;;;;;9.60;4.93;;;;;;;8.22;76.01;103195.25;5077158;28;20328;-78
2022/04/29 00:27:07;;;;;;;5.43;3.15;;;;;;;8.24;75.86;103193.53;5040376;28;20110;-78
2022/04/29 00:29:32;;;;;;;8.65;3.42;;;;;;;8.25;75.90;103196.16;5069466;28;20052;-78
2022/04/29 00:31:58;;;;;;;3.65;3.30;;;;;;;8.27;75.84;103189.22;5077314;28;20319;-78
2022/04/29 00:34:23;;;;;;;9.85;3.80;;;;;;;8.11;76.10;103192.56;5065209;28;20111;-78
2022/04/29 00:36:49;;;;;;;5.93;3.20;;;;;;;8.03;75.86;103195.13;5076864;28;20036;-78
2022/04/29 00:39:14;;;;;;;8.55;3.50;;;;;;;7.99;76.07;103193.38;5076428;28;20036;-78
2022/04/29 00:41:40;;;;;;;9.07;4.03;;;;;;;7.96;76.41;103190.72;5059924;28;20146;-78
2022/04/29 00:44:07;;;;;;;7.30;3.22;;;;;;;7.92;76.50;103194.19;5058801;28;20043;-78
2022/04/29 00:46:42;;;;;;;7.15;3.63;;;;;;;7.83;76.42;103196.72;5077296;28;20088;-78
2022/04/29 00:49:13;;;;;;;10.57;4.32;;;;;;;7.83;76.66;103191.50;5084100;28;20099;-78
2022/04/29 00:51:42;;;;;;;4.93;3.70;;;;;;;7.81;76.80;103190.63;5066114;28;20012;-78
2022/04/29 00:54:24;;;;;;;14.15;3.78;;;;;;;7.75;76.81;103188.84;5065786;28;20028;-78
2022/04/29 00:56:52;;;;;;;11.98;3.85;;;;;;;7.78;76.91;103186.25;5083934;28;20028;-78
2022/04/29 00:59:36;;;;;;;10.10;3.78;;;;;;;7.80;76.81;103188.84;5083173;28;20054;-78
2022/04/29 01:02:03;;;;;;;8.85;3.40;;;;;;;7.80;76.65;103183.66;5066158;28;20024;-78
2022/04/29 01:04:37;;;;;;;5.45;3.55;;;;;;;7.79;76.90;103182.78;5064981;28;20032;-78
2022/04/29 01:07:03;;;;;;;8.93;3.72;;;;;;;7.76;76.60;103180.13;5084077;28;20044;-78
2022/04/29 01:09:29;;;;;;;11.45;3.90;;;;;;;7.75;76.71;103182.72;5083745;28;20225;-78
2022/04/29 01:11:55;;;;;;;7.50;3.53;;;;;;;7.78;76.75;103180.16;5065962;28;20032;-78
2022/04/29 01:14:21;;;;;;;11.07;4.53;;;;;;;7.82;76.60;103187.13;5065056;28;20036;-78
2022/04/29 01:16:46;;;;;;;6.20;3.25;;;;;;;7.78;76.65;103181.03;5065633;28;20017;-78
2022/04/29 01:19:14;;;;;;;10.98;3.97;;;;;;;7.80;76.72;103170.59;5028998;28;20409;-78
2022/04/29 01:21:40;;;;;;;7.03;4.28;;;;;;;7.77;76.78;103171.47;5029753;28;20401;-78
2022/04/29 01:24:07;;;;;;;9.63;3.47;;;;;;;7.76;76.86;103164.47;5059216;28;20057;-78
2022/04/29 01:26:34;;;;;;;11.48;3.95;;;;;;;7.79;76.72;103172.34;5064968;28;20044;-78
2022/04/29 01:29:01;;;;;;;4.80;3.40;;;;;;;7.85;76.59;103168.91;5065912;28;20102;-78
2022/04/29 01:31:28;;;;;;;6.43;3.70;;;;;;;7.83;76.71;103168.91;5082906;28;20033;-78
2022/04/29 01:33:54;;;;;;;10.50;3.92;;;;;;;7.85;76.74;103164.56;5065411;28;20034;-78
2022/04/29 01:36:20;;;;;;;9.98;4.13;;;;;;;7.85;76.92;103166.31;5048830;28;20348;-78
2022/04/29 01:38:45;;;;;;;4.70;4.05;;;;;;;7.92;76.91;103148.97;5065814;28;20127;-78
2022/04/29 01:41:13;;;;;;;7.53;3.65;;;;;;;7.91;76.87;103149.81;5065909;28;20064;-78
2022/04/29 01:43:38;;;;;;;6.88;4.05;;;;;;;7.90;76.80;103150.69;5049382;28;20101;-78
2022/04/29 01:46:04;;;;;;;6.47;4.15;;;;;;;7.84;76.79;103155.00;5048370;28;20049;-78
2022/04/29 01:48:29;;;;;;;8.63;4.32;;;;;;;7.82;76.68;103143.69;5064908;28;20044;-78
2022/04/29 01:50:55;;;;;;;7.00;4.30;;;;;;;7.82;76.77;103148.91;5048602;28;20043;-78
2022/04/29 01:53:20;;;;;;;11.13;4.43;;;;;;;7.81;76.76;103149.75;5083250;28;20055;-78
2022/04/29 01:55:46;;;;;;;7.63;4.38;;;;;;;7.77;76.85;103145.38;5083873;28;20093;-78
2022/04/29 01:58:14;;;;;;;4.82;4.40;;;;;;;7.69;77.25;103145.31;5082660;28;20064;-78
2022/04/29 02:00:40;;;;;;;6.57;4.30;;;;;;;7.73;76.98;103143.63;5045099;28;20075;-78
2022/04/29 02:03:06;;;;;;;8.57;4.30;;;;;;;7.74;77.12;103147.94;5079985;28;20044;-78
2022/04/29 02:05:32;;;;;;;8.02;4.15;;;;;;;7.66;77.23;103147.91;5045367;28;20100;-78
2022/04/29 02:08:00;;;;;;;6.53;4.50;;;;;;;7.65;77.56;103150.47;5062241;28;20037;-78
2022/04/29 02:10:26;;;;;;;10.73;4.90;;;;;;;7.65;77.49;103138.31;5061343;28;20051;-78
2022/04/29 02:12:52;;;;;;;7.13;4.80;;;;;;;7.68;77.27;103150.53;5079922;28;20250;-78
2022/04/29 02:15:17;;;;;;;5.70;4.38;;;;;;;7.71;77.24;103149.66;5061372;28;20041;-78
2022/04/29 02:17:43;;;;;;;7.13;4.45;;;;;;;7.69;77.21;103147.94;5061786;28;20029;-78
2022/04/29 02:20:09;;;;;;;8.45;4.40;;;;;;;7.67;77.20;103146.16;5061253;28;20078;-78
2022/04/29 02:22:34;;;;;;;5.55;4.40;;;;;;;7.67;77.57;103156.59;5061448;28;20028;-78
2022/04/29 02:25:00;;;;;;;6.97;4.30;;;;;;;7.68;77.55;103153.13;5061553;28;20312;-78
2022/04/29 02:27:25;;;;;;;7.22;4.78;;;;;;;7.64;77.71;103156.56;5053843;28;20040;-78
2022/04/29 02:29:50;;;;;;;9.98;4.68;;;;;;;7.61;77.53;103154.81;5061871;28;20044;-78
2022/04/29 02:32:17;;;;;;;6.25;4.30;;;;;;;7.61;77.40;103153.94;5061125;28;20040;-78
2022/04/29 02:34:43;;;;;;;7.15;4.63;;;;;;;7.61;77.49;103151.31;5079672;28;20193;-78
2022/04/29 02:37:08;;;;;;;5.53;3.88;;;;;;;7.66;77.37;103140.06;5061131;28;20048;-78
2022/04/29 02:39:34;;;;;;;9.90;4.38;;;;;;;7.65;77.40;103134.84;5079192;28;20063;-78
2022/04/29 02:41:59;;;;;;;11.15;5.13;;;;;;;7.61;77.43;103143.50;5045435;28;20047;-78
2022/04/29 02:44:25;;;;;;;8.70;4.43;;;;;;;7.65;77.48;103138.31;5060894;28;20043;-78
2022/04/29 02:47:08;;;;;;;6.13;4.80;;;;;;;7.58;77.52;103133.91;5078758;28;20056;-77
2022/04/29 02:49:39;;;;;;;12.15;4.70;;;;;;;7.54;77.82;103124.31;5060583;28;20040;-77
2022/04/29 02:52:06;;;;;;;7.05;5.05;;;;;;;7.54;78.01;103132.13;5078812;28;20093;-77
2022/04/29 02:54:32;;;;;;;6.78;4.43;;;;;;;7.48;78.13;103127.75;5078911;28;20064;-77
2022/04/29 02:56:58;;;;;;;8.57;4.03;;;;;;;7.53;77.96;103130.41;5079080;28;20362;-77
2022/04/29 02:59:23;;;;;;;5.45;3.95;;;;;;;7.60;77.70;103137.38;5061023;28;20036;-77
2022/04/29 03:01:48;;;;;;;8.80;5.18;;;;;;;7.61;77.85;103135.69;5060595;28;20055;-77
2022/04/29 03:04:15;;;;;;;11.15;4.50;;;;;;;7.62;77.57;103129.59;5060628;28;20036;-77
2022/04/29 03:06:41;;;;;;;7.13;4.53;;;;;;;7.62;77.72;103129.59;5078418;28;20048;-77
2022/04/29 03:09:06;;;;;;;8.10;5.03;;;;;;;7.62;77.63;103133.09;5060999;28;20071;-77
2022/04/29 03:11:32;;;;;;;10.90;5.70;;;;;;;7.56;77.94;103133.03;5078048;28;20387;-77
2022/04/29 03:13:57;;;;;;;10.15;4.90;;;;;;;7.56;77.73;103124.34;5060305;28;20270;-77
2022/04/29 03:16:22;;;;;;;12.05;5.32;;;;;;;7.57;77.98;103132.19;5077926;28;20045;-78
2022/04/29 03:18:48;;;;;;;7.78;4.82;;;;;;;7.58;77.70;103131.28;5078301;28;20059;-78
2022/04/29 03:21:13;;;;;;;9.00;4.35;;;;;;;7.60;77.64;103129.56;5059896;28;20097;-78
2022/04/29 03:23:39;;;;;;;8.32;4.97;;;;;;;7.60;77.60;103132.19;5060711;28;20036;-78
2022/04/29 03:26:05;;;;;;;4.60;4.20;;;;;;;7.67;77.43;103127.91;5060550;28;20046;-78
2022/04/29 03:28:31;;;;;;;8.50;5.00;;;;;;;7.71;77.22;103124.44;5078331;28;20155;-78
2022/04/29 03:30:57;;;;;;;4.57;3.42;;;;;;;7.78;77.27;103130.59;5043699;28;20082;-78
2022/04/29 03:33:22;;;;;;;4.00;3.75;;;;;;;7.81;77.10;103133.22;5077754;28;20032;-78
2022/04/29 03:35:50;;;;;;;4.40;3.72;;;;;;;7.83;76.92;103129.75;5078297;28;20047;-78
2022/04/29 03:38:16;;;;;;;6.10;3.60;;;;;;;7.89;76.89;103128.94;5043262;28;20044;-78
2022/04/29 03:40:41;;;;;;;4.40;3.97;;;;;;;7.91;76.79;103118.50;5059789;28;20024;-78
2022/04/29 03:43:07;;;;;;;10.27;4.50;;;;;;;7.95;76.73;103120.25;5059470;28;20035;-78
2022/04/29 03:45:33;;;;;;;9.80;4.72;;;;;;;7.91;76.44;103114.16;5059698;28;20050;-78
2022/04/29 03:47:58;;;;;;;8.07;4.75;;;;;;;7.89;76.63;103108.06;5077987;28;20134;-78
2022/04/29 03:50:25;;;;;;;7.72;5.03;;;;;;;7.86;76.82;103095.88;5077466;28;20226;-78
2022/04/29 03:52:58;;;;;;;8.85;5.18;;;;;;;7.82;77.19;103096.72;5059698;28;20117;-78
2022/04/29 03:55:27;;;;;;;8.18;5.13;;;;;;;7.78;77.05;103081.88;5077658;28;20044;-78
2022/04/29 03:57:56;;;;;;;6.45;5.20;;;;;;;7.78;77.03;103078.41;5078015;28;20332;-78
2022/04/29 04:00:23;;;;;;;10.52;5.10;;;;;;;7.77;76.98;103084.53;5059821;28;20037;-78
2022/04/29 04:02:49;;;;;;;7.18;4.32;;;;;;;7.76;77.54;103083.63;5042531;28;20024;-78
2022/04/29 04:05:15;;;;;;;6.15;4.75;;;;;;;7.76;77.33;103077.53;5059259;28;20317;-78
2022/04/29 04:07:40;;;;;;;7.55;4.85;;;;;;;7.71;77.52;103090.53;5059581;28;20044;-78
2022/04/29 04:10:07;;;;;;;5.75;4.40;;;;;;;7.75;77.44;103084.50;5059390;28;20032;-77
2022/04/29 04:12:49;;;;;;;6.63;4.07;;;;;;;7.78;77.22;103094.06;5077019;28;20378;-78
2022/04/29 04:15:16;;;;;;;7.95;5.28;;;;;;;7.79;77.37;103093.22;5077302;28;20039;-77
2022/04/29 04:17:42;;;;;;;11.23;5.05;;;;;;;7.76;77.53;103085.38;5077452;28;20165;-78
2022/04/29 04:20:09;;;;;;;11.13;5.55;;;;;;;7.68;77.62;103080.09;5077333;28;20032;-78
2022/04/29 04:22:35;;;;;;;7.95;4.63;;;;;;;7.60;77.79;103079.16;5076254;28;20043;-78
2022/04/29 04:25:03;;;;;;;9.15;5.60;;;;;;;7.59;77.99;103069.59;5042688;28;20051;-78
2022/04/29 04:27:30;;;;;;;6.80;5.00;;;;;;;7.57;78.39;103076.56;5076857;28;20029;-77
2022/04/29 04:29:55;;;;;;;9.45;5.70;;;;;;;7.55;78.31;103076.53;5077884;28;20371;-78
2022/04/29 04:32:21;;;;;;;11.30;5.68;;;;;;;7.53;78.54;103075.66;5076612;28;20040;-77
2022/04/29 04:34:57;;;;;;;7.13;5.05;;;;;;;7.49;78.79;103074.75;5059649;28;20262;-78
2022/04/29 04:37:24;;;;;;;6.75;5.40;;;;;;;7.48;78.65;103074.72;5043316;28;20077;-77
2022/04/29 04:39:51;;;;;;;8.60;5.03;;;;;;;7.48;78.68;103073.00;5076803;28;20047;-78
2022/04/29 04:42:17;;;;;;;13.07;5.88;;;;;;;7.41;78.76;103073.81;5070511;28;20043;-78
2022/04/29 04:44:43;;;;;;;8.85;5.10;;;;;;;7.40;78.99;103076.38;5075430;28;20036;-78
2022/04/29 04:47:08;;;;;;;8.50;5.38;;;;;;;7.38;78.97;103084.19;5074906;28;20274;-78
2022/04/29 04:49:34;;;;;;;9.05;5.40;;;;;;;7.42;79.25;103082.50;5075634;28;20036;-78
2022/04/29 04:52:00;;;;;;;4.97;4.47;;;;;;;7.47;79.00;103088.63;5041142;28;20047;-78
2022/04/29 04:54:26;;;;;;;10.48;5.53;;;;;;;7.48;78.71;103091.25;5074800;28;20040;-78
2022/04/29 04:56:51;;;;;;;8.82;4.90;;;;;;;7.50;78.63;103088.66;5057361;28;20213;-78
2022/04/29 04:59:17;;;;;;;8.32;4.50;;;;;;;7.57;78.43;103089.59;5040614;28;20028;-78
2022/04/29 05:01:42;;;;;;;10.73;4.68;;;;;;;7.61;78.32;103099.16;5057809;28;20040;-78
2022/04/29 05:04:08;;;;;;;8.40;4.68;;;;;;;7.65;78.26;103106.16;5040513;28;20045;-78
2022/04/29 05:06:36;;;;;;;6.60;4.45;;;;;;;7.68;77.91;103107.03;5056701;28;20029;-78
2022/04/29 05:09:03;;;;;;;13.52;6.05;;;;;;;7.70;78.08;103104.44;5075200;28;20421;-78
2022/04/29 05:11:28;;;;;;;5.47;4.53;;;;;;;7.72;77.98;103110.56;5057863;28;20225;-78
2022/04/29 05:13:53;;;;;;;4.85;4.13;;;;;;;7.77;77.69;103119.28;5057100;28;20094;-78
2022/04/29 05:16:19;;;;;;;9.77;4.72;;;;;;;7.78;77.43;103112.34;5056174;28;20047;-78
2022/04/29 05:18:44;;;;;;;11.45;4.82;;;;;;;7.80;77.61;103103.63;5074751;28;20273;-78
2022/04/29 05:21:09;;;;;;;7.65;4.40;;;;;;;7.82;77.44;103103.66;5040526;28;20082;-78
2022/04/29 05:23:36;;;;;;;8.52;4.70;;;;;;;7.81;77.07;103114.97;5074736;28;20056;-78
2022/04/29 05:26:02;;;;;;;11.82;5.40;;;;;;;7.72;77.86;103104.47;5047111;28;20364;-78
2022/04/29 05:28:27;;;;;;;7.78;5.68;;;;;;;7.65;77.95;103103.53;5064271;28;20166;-78
2022/04/29 05:30:53;;;;;;;12.80;5.40;;;;;;;7.58;78.45;103106.97;5064754;28;20078;-78
2022/04/29 05:33:18;;;;;;;19.75;5.82;;;;;;;7.55;78.55;103107.81;5027266;28;20273;-78
2022/04/29 05:35:44;;;;;;;13.50;5.88;;;;;;;7.37;79.36;103105.94;5077984;28;20048;-78
2022/04/29 05:38:09;;;;;;;12.65;5.43;;;;;;;7.29;79.86;103108.47;5044120;28;20044;-78
2022/04/29 05:43:19;;;;;;;7.57;4.93;;;;;;;7.35;79.97;103107.66;5056420;28;20072;-78
2022/04/29 05:45:44;;;;;;;15.52;6.07;;;;;;;7.35;79.81;103115.47;5075008;28;20104;-78
2022/04/29 05:48:10;;;;;;;14.23;6.18;;;;;;;7.29;80.01;103107.56;5043294;28;20367;-78
2022/04/29 05:50:35;;;;;;;10.55;5.10;;;;;;;7.25;80.21;103113.63;5026471;28;20040;-78
2022/04/29 05:53:00;;;;;;;12.27;5.57;;;;;;;7.23;80.14;103120.56;5057585;28;20063;-78
2022/04/29 05:55:26;;;;;;;12.02;5.78;;;;;;;7.25;80.07;103121.44;5062698;28;20350;-78
2022/04/29 05:57:51;;;;;;;10.82;5.40;;;;;;;7.31;80.18;103118.88;5060205;28;20336;-78
2022/04/29 06:00:19;;;;;;;7.03;5.53;;;;;;;7.33;80.36;103121.50;5077276;28;20210;-78
2022/04/29 06:02:45;;;;;;;9.65;5.13;;;;;;;7.26;79.93;103118.00;5052250;28;20228;-78
2022/04/29 06:05:11;;;;;;;10.43;5.57;;;;;;;7.24;80.67;103119.69;5071470;28;20508;-78
2022/04/29 06:07:36;;;;;;;10.82;6.03;;;;;;;7.22;80.74;103118.78;5043225;28;20059;-78
2022/04/29 06:10:02;;;;;;;12.32;6.15;;;;;;;7.24;80.82;103122.28;5043304;28;20063;-78
2022/04/29 06:12:27;;;;;;;10.18;5.22;;;;;;;7.21;80.96;103122.28;5077076;28;20028;-78
2022/04/29 06:14:53;;;;;;;12.80;6.18;;;;;;;7.23;81.42;103125.78;5042966;28;20082;-78
2022/04/29 06:17:18;;;;;;;12.77;6.43;;;;;;;7.27;81.13;103137.97;5056882;28;20108;-78
2022/04/29 06:19:44;;;;;;;13.15;5.80;;;;;;;7.25;80.96;103135.34;5077784;28;20040;-78
2022/04/29 06:22:09;;;;;;;10.80;6.43;;;;;;;7.25;81.01;103129.25;5055984;28;20133;-78
2022/04/29 06:24:34;;;;;;;10.55;5.60;;;;;;;7.26;80.86;103129.28;5064313;28;20043;-78
2022/04/29 06:27:01;;;;;;;12.60;6.07;;;;;;;7.27;81.15;103138.84;5047937;28;20033;-78
2022/04/29 06:29:27;;;;;;;11.32;5.65;;;;;;;7.25;80.86;103139.69;5055457;28;20040;-78
2022/04/29 06:31:52;;;;;;;8.35;5.78;;;;;;;7.29;80.91;103139.75;5076307;28;20029;-78
2022/04/29 06:34:18;;;;;;;11.88;7.18;;;;;;;7.36;80.92;103138.06;5035966;28;20232;-78
2022/04/29 06:36:43;;;;;;;10.32;6.00;;;;;;;7.39;80.84;103143.31;5069485;28;20091;-78
2022/04/29 06:39:08;;;;;;;15.40;6.20;;;;;;;7.44;80.53;103146.84;5057298;28;20439;-78
2022/04/29 06:41:36;;;;;;;13.93;5.88;;;;;;;7.43;80.51;103142.47;5065887;28;20056;-78
2022/04/29 06:44:02;;;;;;;7.50;5.60;;;;;;;7.44;80.56;103148.53;5038583;28;20064;-78
2022/04/29 06:46:27;;;;;;;15.98;6.20;;;;;;;7.44;80.64;103146.84;5057299;28;20060;-78
2022/04/29 06:48:56;;;;;;;12.57;5.13;;;;;;;7.48;80.38;103148.59;5041673;28;20111;-78
2022/04/29 06:51:25;;;;;;;8.45;5.30;;;;;;;7.49;80.43;103149.47;5059308;28;20274;-78
2022/04/29 06:53:51;;;;;;;14.85;6.28;;;;;;;7.55;80.40;103153.88;5041409;28;20340;-78
2022/04/29 06:56:16;;;;;;;18.88;5.40;;;;;;;7.57;80.24;103160.00;5042240;28;20036;-78
2022/04/29 06:58:42;;;;;;;6.85;5.00;;;;;;;7.57;80.02;103163.47;5059626;28;20037;-78
2022/04/29 07:01:07;;;;;;;12.35;5.47;;;;;;;7.58;80.12;103162.59;5058772;28;20036;-78
2022/04/29 07:03:33;;;;;;;12.90;5.57;;;;;;;7.61;79.85;103154.81;5075967;28;20293;-78
2022/04/29 07:06:00;;;;;;;11.57;5.65;;;;;;;7.61;80.35;103156.53;5076203;28;20488;-78
2022/04/29 07:08:28;;;;;;;12.57;5.78;;;;;;;7.67;80.23;103159.19;5038505;28;20039;-78
2022/04/29 07:10:55;;;;;;;8.40;5.38;;;;;;;7.70;79.97;103159.22;5077414;28;20044;-78
2022/04/29 07:13:20;;;;;;;7.70;5.25;;;;;;;7.67;79.83;103147.00;5076993;28;20036;-78
2022/04/29 07:15:46;;;;;;;9.52;5.03;;;;;;;7.65;79.70;103146.13;5057825;28;20040;-78
2022/04/29 07:18:12;;;;;;;15.10;5.60;;;;;;;7.64;79.87;103143.50;5066958;28;20043;-78
2022/04/29 07:20:38;;;;;;;10.98;6.10;;;;;;;7.66;79.77;103141.81;5077061;28;20217;-78
2022/04/29 07:23:03;;;;;;;12.15;5.95;;;;;;;7.66;80.41;103134.84;5060991;28;20333;-78
2022/04/29 07:25:29;;;;;;;12.32;5.55;;;;;;;7.64;80.23;103122.66;5059842;28;20016;-78
2022/04/29 07:27:54;;;;;;;11.90;5.53;;;;;;;7.65;80.19;103122.66;5053700;28;20332;-78
2022/04/29 07:30:19;;;;;;;11.48;5.72;;;;;;;7.65;79.95;103130.47;5038969;28;20041;-78
2022/04/29 07:32:45;;;;;;;15.27;5.60;;;;;;;7.65;79.76;103133.09;5074809;28;20103;-78
2022/04/29 07:43:23;;;;;;;22.35;5.95;;;;;;;7.74;79.15;103118.41;5069886;28;20031;-78
2022/04/29 07:45:51;;;;;;;9.18;4.75;;;;;;;7.75;78.89;103118.41;5056146;28;20352;-79
2022/04/29 07:48:18;;;;;;;14.95;5.72;;;;;;;7.77;78.89;103127.13;5079270;28;20394;-78
2022/04/29 07:50:43;;;;;;;12.98;5.50;;;;;;;7.77;78.93;103119.28;5066164;28;20033;-78
2022/04/29 07:53:09;;;;;;;11.20;5.75;;;;;;;7.77;78.89;103127.13;5070959;28;20040;-78
2022/04/29 07:55:35;;;;;;;9.68;5.15;;;;;;;7.80;78.77;103123.66;5071231;28;20032;-78
2022/04/29 07:58:01;;;;;;;13.82;5.57;;;;;;;7.84;79.08;103128.91;5066170;28;20017;-79
2022/04/29 08:00:27;;;;;;;7.13;5.35;;;;;;;7.88;78.95;103135.88;5067375;28;20017;-79
2022/04/29 08:02:52;;;;;;;10.60;5.13;;;;;;;7.88;78.84;103138.50;5075662;28;20123;-79
2022/04/29 08:05:18;;;;;;;11.43;5.18;;;;;;;7.93;78.88;103137.66;5091419;28;20032;-78
2022/04/29 08:07:43;;;;;;;9.10;5.45;;;;;;;7.93;78.79;103145.47;5061197;28;20017;-78
2022/04/29 08:10:09;;;;;;;23.38;6.00;;;;;;;7.93;78.76;103148.09;5073758;28;20066;-78
2022/04/29 08:12:36;;;;;;;17.13;5.57;;;;;;;7.94;78.48;103144.63;5090966;28;20032;-78
2022/04/29 08:15:02;;;;;;;13.27;5.65;;;;;;;7.93;78.40;103145.47;5091512;28;20021;-79
2022/04/29 08:17:28;;;;;;;13.27;5.43;;;;;;;7.95;78.52;103130.69;5090587;28;20017;-78
2022/04/29 08:19:53;;;;;;;10.30;5.20;;;;;;;7.96;78.31;103133.31;5073995;28;20040;-78
2022/04/29 08:22:20;;;;;;;11.85;6.00;;;;;;;7.97;78.55;103142.06;5073410;28;20032;-78
2022/04/29 08:24:46;;;;;;;11.05;5.13;;;;;;;8.00;78.48;103142.91;5081558;28;20068;-78
2022/04/29 08:27:12;;;;;;;13.13;5.53;;;;;;;8.01;78.52;103142.06;5079341;28;20033;-78
2022/04/29 08:29:38;;;;;;;7.90;5.63;;;;;;;8.00;78.52;103147.28;5044597;28;20040;-78
2022/04/29 08:32:06;;;;;;;13.57;6.03;;;;;;;8.07;78.76;103156.88;5077578;28;20012;-78
2022/04/29 08:34:33;;;;;;;11.88;5.47;;;;;;;8.05;78.56;103154.25;5061221;28;20412;-78
2022/04/29 08:37:03;;;;;;;11.75;5.85;;;;;;;8.07;78.37;103157.75;5067298;28;20338;-78
2022/04/29 08:39:29;;;;;;;9.18;5.90;;;;;;;8.08;78.18;103153.44;5076573;28;20064;-78
2022/04/29 08:42:00;;;;;;;9.90;5.57;;;;;;;8.07;78.10;103157.75;5076441;28;20269;-78
2022/04/29 08:44:27;;;;;;;14.00;5.45;;;;;;;8.03;78.04;103150.78;5058349;28;20032;-78
2022/04/29 08:46:53;;;;;;;16.23;5.53;;;;;;;8.03;78.34;103156.00;5077403;28;20352;-78
2022/04/29 08:49:19;;;;;;;14.43;6.05;;;;;;;8.06;78.54;103153.41;5059193;28;20024;-78
2022/04/29 08:51:45;;;;;;;13.55;5.72;;;;;;;8.10;78.70;103162.13;5059882;28;20040;-78
2022/04/29 08:58:36;;;;;;;13.07;5.72;;;;;;;8.11;78.32;103161.25;5043351;28;20056;-78
2022/04/29 08:59:40;;;;;;;7.75;5.22;;;;;;;8.15;77.69;103165.66;5048391;28;20108;-78
2022/04/29 09:02:05;;;;;;;8.68;5.53;;;;;;;8.17;77.44;103166.53;5077334;28;20048;-78
2022/04/29 09:04:31;;;;;;;16.35;5.38;;;;;;;8.17;77.35;103155.22;5059386;28;20036;-78
2022/04/29 09:06:56;;;;;;;16.77;5.57;;;;;;;8.14;77.62;103145.63;5077468;28;20047;-78
2022/04/29 09:09:22;;;;;;;13.68;5.32;;;;;;;8.16;77.68;103145.66;5079548;28;20036;-78
2022/04/29 09:11:47;;;;;;;13.88;5.95;;;;;;;8.19;78.13;103154.38;5081406;28;20024;-78
2022/04/29 09:14:21;;;;;;;11.63;5.30;;;;;;;8.23;78.08;103170.94;5062906;28;20033;-78
2022/04/29 09:16:48;;;;;;;12.15;5.57;;;;;;;8.25;78.11;103164.84;5063715;28;20370;-78
2022/04/29 09:19:31;;;;;;;8.07;5.25;;;;;;;8.29;77.68;103157.03;5052171;28;20036;-78
2022/04/29 09:22:07;;;;;;;9.07;4.95;;;;;;;8.30;77.57;103145.75;5069292;28;20107;-78
2022/04/29 09:24:36;;;;;;;11.95;5.03;;;;;;;8.31;77.65;103145.72;5062646;28;20105;-78
2022/04/29 09:27:05;;;;;;;9.88;5.00;;;;;;;8.35;77.53;103144.91;5063472;28;20067;-78
2022/04/29 09:29:39;;;;;;;13.30;6.05;;;;;;;8.39;77.39;103138.81;5062704;28;20048;-78
2022/04/29 09:32:05;;;;;;;7.75;5.03;;;;;;;8.42;77.06;103137.97;5080842;28;20040;-78
2022/04/29 09:34:45;;;;;;;12.35;5.20;;;;;;;8.41;76.86;103128.38;5029373;28;20040;-78
2022/04/29 09:37:15;;;;;;;10.18;4.47;;;;;;;8.44;76.69;103110.13;5080469;28;20239;-78
2022/04/29 09:40:10;;;;;;;14.18;4.97;;;;;;;8.45;76.53;103107.53;5063208;28;20036;-78
2022/04/29 09:42:39;;;;;;;13.60;6.28;;;;;;;8.47;76.38;103115.38;5060908;28;20056;-78
2022/04/29 09:45:17;;;;;;;9.10;5.07;;;;;;;8.50;76.73;103120.63;5080361;28;20044;-78
2022/04/29 09:47:43;;;;;;;11.02;5.28;;;;;;;8.55;76.79;103123.25;5063338;28;20267;-78
2022/04/29 09:50:08;;;;;;;12.93;5.03;;;;;;;8.60;76.58;103134.59;5080240;28;20103;-78
2022/04/29 09:52:39;;;;;;;8.98;4.88;;;;;;;8.59;76.02;103138.94;5079852;28;20021;-78
2022/04/29 09:55:17;;;;;;;10.98;4.85;;;;;;;8.60;76.09;103145.94;5080080;28;20108;-78
2022/04/29 09:58:08;;;;;;;9.48;4.97;;;;;;;8.61;75.77;103150.28;5062274;28;20358;-78
2022/04/29 10:00:34;;;;;;;16.70;4.82;;;;;;;8.67;75.62;103151.16;5079871;28;20265;-78
2022/04/29 10:03:03;;;;;;;12.00;5.10;;;;;;;8.67;75.59;103149.41;5080584;28;20044;-78
2022/04/29 10:05:29;;;;;;;;;;;;;;;8.69;75.88;103155.53;5063076;28;20045;-78
2022/04/29 10:07:57;;;;;;;9.25;5.30;;;;;;;8.72;75.75;103163.38;5080057;28;19907;-78
2022/04/29 10:10:27;;;;;;;11.35;5.22;;;;;;;8.71;75.58;103161.63;5079600;28;20020;-78
2022/04/29 10:12:54;;;;;;;13.70;5.03;;;;;;;8.75;75.41;103152.06;5080322;28;20020;-78
2022/04/29 10:15:22;;;;;;;12.93;4.60;;;;;;;8.76;75.40;103146.84;5044677;28;20033;-78
2022/04/29 10:23:22;;;;;;;8.13;4.43;;;;;;;8.86;75.12;103146.88;5079380;28;20102;-78
2022/04/29 10:25:48;;;;;;;10.20;4.43;;;;;;;8.87;75.17;103144.28;5079795;28;20077;-78
2022/04/29 10:28:19;;;;;;;10.15;3.88;;;;;;;8.93;75.21;103151.25;5061391;28;20287;-78
2022/04/29 10:30:45;;;;;;;8.38;4.43;;;;;;;8.97;75.25;103150.41;5079986;28;20059;-78
2022/04/29 10:33:17;;;;;;;9.15;4.97;;;;;;;9.00;74.87;103146.06;5061376;28;20060;-78
2022/04/29 10:35:47;;;;;;;9.18;4.82;;;;;;;9.01;74.80;103137.34;5062594;28;20052;-78
2022/04/29 10:38:14;;;;;;;7.22;4.55;;;;;;;9.06;75.18;103141.69;5078894;28;20036;-78
2022/04/29 10:40:39;;;;;;;9.95;5.10;;;;;;;9.09;74.83;103139.97;5079457;28;20055;-78
2022/04/29 10:43:09;;;;;;;8.73;4.68;;;;;;;9.10;74.80;103133.88;5061453;28;20232;-78
2022/04/29 10:45:56;;;;;;;9.73;5.20;;;;;;;9.13;74.27;103133.00;5061620;28;20113;-78
2022/04/29 10:48:38;;;;;;;7.47;4.63;;;;;;;9.20;74.50;103135.66;5063819;28;20074;-78
2022/04/29 10:51:26;;;;;;;6.28;4.93;;;;;;;9.31;74.28;103140.88;5079286;28;20063;-78
2022/04/29 10:53:57;;;;;;;10.75;5.78;;;;;;;9.38;74.21;103141.78;5079387;28;20267;-78
2022/04/29 10:56:28;;;;;;;7.28;4.75;;;;;;;9.40;74.08;103140.91;5078663;28;20355;-78
2022/04/29 10:59:21;;;;;;;15.43;5.20;;;;;;;9.41;73.36;103142.66;5079387;28;20066;-78
2022/04/29 11:02:06;;;;;;;9.75;4.53;;;;;;;9.46;73.50;103139.16;5062251;28;20037;-78
2022/04/29 11:04:32;;;;;;;12.73;5.20;;;;;;;9.49;72.64;103136.56;5078845;28;20343;-78
2022/04/29 11:06:57;;;;;;;13.32;5.03;;;;;;;9.54;72.33;103145.28;5060996;28;20024;-78
2022/04/29 11:09:25;;;;;;;10.02;5.05;;;;;;;9.55;71.95;103140.06;5078490;28;20033;-78
2022/04/29 11:11:52;;;;;;;11.03;5.00;;;;;;;9.60;72.05;103138.31;5061212;28;20098;-78
2022/04/29 11:14:18;;;;;;;9.32;4.95;;;;;;;9.65;71.67;103137.44;5078374;28;20032;-78
2022/04/29 11:17:10;;;;;;;9.27;4.80;;;;;;;9.71;71.70;103140.91;5078933;28;20292;-78
2022/04/29 11:19:40;;;;;;;11.45;5.05;;;;;;;9.75;71.55;103132.19;5078362;28;20040;-78
2022/04/29 11:24:52;;;;;;;10.55;4.50;;;;;;;9.77;71.21;103132.19;5078569;28;20094;-78
2022/04/29 11:27:30;;;;;;;6.35;4.32;;;;;;;9.76;70.61;103131.31;5060321;28;20040;-78
2022/04/29 11:30:02;;;;;;;5.67;4.40;;;;;;;9.75;70.55;103120.84;5060461;28;20374;-78
2022/04/29 11:32:29;;;;;;;6.63;4.53;;;;;;;9.76;70.73;103126.06;5077862;28;20308;-78
2022/04/29 11:34:57;;;;;;;11.80;4.85;;;;;;;9.76;70.64;103128.69;5043848;28;20040;-78
2022/04/29 11:37:27;;;;;;;10.73;5.83;;;;;;;9.78;70.55;103124.31;5060073;28;20374;-78
2022/04/29 11:39:57;;;;;;;7.47;4.40;;;;;;;9.80;70.53;103124.31;5078479;28;20269;-78
2022/04/29 11:42:22;;;;;;;7.75;4.47;;;;;;;9.82;68.87;103129.56;5059610;28;20331;-78
2022/04/29 11:44:51;;;;;;;6.50;4.85;;;;;;;9.82;68.91;103119.09;5043633;28;20275;-78
2022/04/29 11:47:23;;;;;;;6.68;4.80;;;;;;;9.83;69.15;103118.25;5044026;28;20064;-78
2022/04/29 11:49:49;;;;;;;9.98;5.03;;;;;;;9.84;69.11;103120.84;5060156;28;20342;-78
2022/04/29 11:52:23;;;;;;;6.60;4.90;;;;;;;9.87;69.06;103114.72;5077518;28;20017;-78